Latest Weather Observations for Trepell

IDQ60801

Issued at 3:35 pm EST Thursday 24 April 2014 (issued every 30 minutes, with the page automatically refreshed every 10 minutes)

About weather observations | Map of weather stations | Latest weather observations for QLD | Other Formats
Station Details ID: 037036 Name: TREPELL AIRPORT Lat: -21.84 Lon: 140.89 Height: 266.2 m
Data from the previous 72 hours. | See also: Recent months at Trepell
Date/Time
EST
Temp
°C
App
Temp
°C
Dew
Point
Rel
Hum
%
Delta-T
°C
Wind Press
QNH
hPa
Press
MSL
hPa
Rain
since 9 am
mm
Dir
 
Spd
km/h
Gust
km/h
Spd
kts
Gust
kts
24/03:30pm 33.0 29.7 10.9 26 13.0 E 19 26 10 14 1010.9 - 0.0
24/03:00pm 33.1 30.0 11.6 27 12.8 E 19 28 10 15 1011.1 1009.7 0.0
24/02:30pm 31.2 27.6 10.5 28 12.0 SE 20 30 11 16 1011.4 - 0.0
24/02:00pm 32.5 27.9 11.1 27 12.6 ESE 26 39 14 21 1011.7 - 0.0
24/01:30pm 32.7 29.3 10.7 26 12.9 SE 19 30 10 16 1012.3 - 0.0
24/01:00pm 32.5 28.8 11.6 28 12.4 SE 22 35 12 19 1012.8 - 0.0
24/12:30pm 31.6 27.9 10.3 27 12.3 SSE 20 30 11 16 1013.3 - 0.0
24/12:00pm 31.9 29.7 13.2 32 11.3 SSE 17 26 9 14 1013.8 1012.3 0.0
24/11:30am 31.1 29.5 13.8 34 10.5 SSE 15 26 8 14 1014.2 - 0.0
24/11:00am 29.7 29.1 14.7 40 9.2 SE 11 19 6 10 1014.9 - 0.0
24/10:30am 28.2 28.2 15.1 44 8.1 SE 9 19 5 10 1015.3 - 0.0
24/10:00am 27.6 27.2 15.3 47 7.6 S 11 17 6 9 1015.4 - 0.0
24/09:30am 25.9 26.3 15.3 52 6.5 S 7 11 4 6 1015.4 - 0.0
24/09:00am 25.0 25.8 15.9 57 5.6 E 6 9 3 5 1015.1 1013.7 0.0
24/08:30am 23.1 23.7 15.7 63 4.5 ENE 7 9 4 5 1014.9 - 0.0
24/08:00am 21.5 21.8 15.1 67 3.8 NE 7 9 4 5 1014.7 - 0.0
24/07:30am 19.0 18.8 13.6 71 3.1 NNE 7 9 4 5 1014.4 - 0.0
24/07:00am 17.7 17.3 13.0 74 2.7 NE 7 9 4 5 1014.0 - 0.0
24/06:30am 18.2 18.0 13.1 72 2.9 ENE 6 7 3 4 1013.8 - 0.0
24/06:00am 18.7 18.6 13.8 73 2.8 ENE 7 9 4 5 1013.4 1011.9 0.0
24/05:30am 18.2 17.5 13.1 72 2.9 NNE 9 9 5 5 1013.2 - 0.0
24/05:00am 18.9 18.8 13.3 70 3.2 ENE 6 7 3 4 1013.2 - 0.0
24/04:30am 19.5 19.5 14.1 71 3.2 ENE 7 9 4 5 1013.1 - 0.0
24/04:00am 19.8 19.6 14.8 73 3.0 NNE 9 9 5 5 1013.1 - 0.0
24/03:30am 20.4 20.3 15.0 71 3.2 N 9 11 5 6 1012.9 - 0.0
24/03:00am 20.3 20.2 14.9 71 3.2 NNE 9 11 5 6 1013.1 1011.6 0.0
24/02:30am 20.7 20.2 14.8 69 3.5 NNE 11 13 6 7 1013.2 - 0.0
24/02:00am 21.3 20.8 14.9 67 3.8 NE 11 13 6 7 1013.4 - 0.0
24/01:30am 21.9 20.8 15.3 66 4.0 NNE 15 20 8 11 1013.5 - 0.0
24/01:00am 22.5 21.1 15.6 65 4.2 NNE 17 20 9 11 1013.8 - 0.0
24/12:30am 23.1 21.9 16.2 65 4.2 NNE 17 24 9 13 1013.9 - 0.0
24/12:00am 23.5 21.9 16.1 63 4.5 NNE 19 24 10 13 1014.1 1012.7 0.0
 
Date/Time
EST
Temp
°C
App
Temp
°C
Dew
Point
Rel
Hum
%
Delta-T
°C
Wind Press
QNH
hPa
Press
MSL
hPa
Rain
since 9 am
mm
Dir
 
Spd
km/h
Gust
km/h
Spd
kts
Gust
kts
23/11:30pm 23.9 22.9 16.7 64 4.5 NNE 17 22 9 12 1014.4 - 0.0
23/11:00pm 24.4 23.2 16.1 60 5.1 NNE 17 22 9 12 1014.5 - 0.0
23/10:30pm 24.9 23.5 15.5 56 5.7 NE 17 24 9 13 1014.4 - 0.0
23/10:00pm 25.1 24.1 14.6 52 6.3 NE 13 19 7 10 1014.5 - 0.0
23/09:30pm 24.7 20.5 5.5 29 9.9 NE 17 24 9 13 1014.4 - 0.0
23/09:00pm 25.7 22.7 5.8 28 10.4 E 11 13 6 7 1014.1 1012.7 0.0
23/08:30pm 27.1 24.2 6.5 27 10.9 ESE 11 13 6 7 1013.8 - 0.0
23/08:00pm 28.1 24.8 6.2 25 11.6 ESE 13 15 7 8 1013.6 - 0.0
23/07:30pm 29.0 25.5 7.0 25 11.9 SE 15 19 8 10 1013.4 - 0.0
23/07:00pm 29.4 26.3 7.3 25 12.1 SSE 13 17 7 9 1013.2 - 0.0
23/06:30pm 30.4 26.5 7.0 23 12.8 SSE 17 22 9 12 1012.9 - 0.0
23/06:00pm 31.1 27.8 6.2 21 13.5 SSE 13 17 7 9 1012.6 1011.1 0.0
23/05:30pm 31.8 28.2 6.8 21 13.7 SSE 15 20 8 11 1012.4 - 0.0
23/05:00pm 31.8 28.8 6.1 20 13.9 SSE 11 17 6 9 1012.2 - 0.0
23/04:30pm 32.0 27.9 6.2 20 14.0 SSE 17 20 9 11 1012.2 - 0.0
23/04:00pm 32.7 29.0 6.1 19 14.5 S 15 24 8 13 1012.0 - 0.0
23/03:30pm 33.7 29.2 6.9 19 14.8 SSE 20 33 11 18 1012.4 - 0.0
23/03:00pm 33.2 30.1 7.2 20 14.4 ESE 13 22 7 12 1012.4 1010.9 0.0
23/02:30pm 32.8 29.2 6.9 20 14.3 SE 15 26 8 14 1012.7 - 0.0
23/02:00pm 32.0 28.6 7.6 22 13.6 S 15 24 8 13 1013.0 - 0.0
23/01:30pm 31.6 28.4 8.6 24 13.0 SE 15 24 8 13 1013.4 - 0.0
23/01:00pm 31.3 27.8 8.9 25 12.7 SSE 17 28 9 15 1013.7 - 0.0
23/12:30pm 31.9 30.7 11.7 29 12.0 NNE 9 19 5 10 1014.2 - 0.0
23/12:00pm 31.2 29.6 11.6 30 11.5 ENE 11 22 6 12 1014.9 1013.5 0.0
23/11:30am 30.6 29.1 13.0 34 10.6 ENE 13 22 7 12 1015.4 - 0.0
23/11:00am 29.8 28.7 14.4 39 9.4 E 13 19 7 10 1015.9 - 0.0
23/10:30am 29.1 28.3 16.0 45 8.2 NE 15 20 8 11 1016.3 - 0.0
23/10:00am 27.5 27.2 16.5 51 6.9 NE 13 19 7 10 1016.5 - 0.0
23/09:30am 26.8 27.2 17.3 56 6.0 NNE 11 17 6 9 1016.3 - 0.0
23/09:00am 24.7 25.3 17.7 65 4.4 N 11 13 6 7 1016.0 1014.6 0.0
23/08:30am 23.1 23.7 17.6 71 3.5 N 11 13 6 7 1015.8 - 0.0
23/08:00am 21.9 22.5 16.8 73 3.1 NNE 9 11 5 6 1015.6 - 0.0
23/07:30am 21.1 22.5 17.3 79 2.4 N 6 6 3 3 1015.4 - 0.0
23/07:00am 19.7 20.7 16.3 81 2.1 NNE 6 9 3 5 1015.2 - 0.0
23/06:30am 19.7 20.1 16.2 80 2.1 NNE 9 11 5 6 1014.8 - 0.0
23/06:00am 20.2 20.6 16.4 79 2.3 NNE 9 11 5 6 1014.5 1013.1 0.0
23/05:30am 20.7 21.3 16.9 79 2.3 NNE 9 11 5 6 1014.4 - 0.0
23/05:00am 21.3 21.7 17.3 78 2.5 NNE 11 15 6 8 1014.3 - 0.0
23/04:30am 21.8 21.9 17.4 76 2.7 NNE 13 15 7 8 1014.3 - 0.0
23/04:00am 22.2 22.4 17.6 75 2.9 NE 13 17 7 9 1014.3 - 0.0
23/03:30am 22.5 22.4 17.8 75 3.0 NE 15 20 8 11 1014.1 - 0.0
23/03:00am 23.0 22.6 18.1 74 3.1 NNE 17 20 9 11 1014.2 1012.8 0.0
23/02:30am 23.5 22.9 18.4 73 3.2 NNE 19 24 10 13 1014.4 - 0.0
23/02:00am 23.8 22.5 18.2 71 3.6 NNE 22 30 12 16 1014.6 - 0.0
23/01:30am 24.4 23.7 18.6 70 3.7 NNE 20 28 11 15 1014.8 - 0.0
23/01:00am 24.6 23.1 18.5 69 3.9 N 24 30 13 16 1014.8 - 0.0
23/12:30am 25.4 23.7 18.1 64 4.7 NNE 24 33 13 18 1014.9 - 0.0
23/12:00am 26.4 25.4 17.5 58 5.6 NNE 19 24 10 13 1014.9 1013.5 0.0
 
Date/Time
EST
Temp
°C
App
Temp
°C
Dew
Point
Rel
Hum
%
Delta-T
°C
Wind Press
QNH
hPa
Press
MSL
hPa
Rain
since 9 am
mm
Dir
 
Spd
km/h
Gust
km/h
Spd
kts
Gust
kts
22/11:30pm 26.8 24.1 7.3 29 10.5 ENE 11 17 6 9 1015.0 - 0.0
22/11:00pm 27.6 24.9 7.5 28 10.9 ESE 11 13 6 7 1015.0 - 0.0
22/10:30pm 27.2 24.9 7.6 29 10.6 SE 9 11 5 6 1015.0 - 0.0
22/10:00pm 27.9 24.8 7.2 27 11.2 ESE 13 15 7 8 1015.0 - 0.0
22/09:30pm 28.5 25.1 7.7 27 11.4 SE 15 19 8 10 1014.9 - 0.0
22/09:00pm 28.0 25.0 7.8 28 11.0 SE 13 15 7 8 1014.9 1013.5 0.0
22/08:30pm 28.8 25.3 7.4 26 11.7 ESE 15 17 8 9 1014.7 - 0.0
22/08:00pm 29.2 25.8 7.7 26 11.8 ESE 15 19 8 10 1014.3 - 0.0
22/07:30pm 29.5 26.2 8.0 26 11.9 SE 15 19 8 10 1014.0 - 0.0
22/07:00pm 30.3 27.2 8.7 26 12.1 SE 15 19 8 10 1013.7 - 0.0
22/06:30pm 30.8 28.7 9.6 27 12.1 ESE 11 17 6 9 1013.5 - 0.0
22/06:00pm 31.0 28.9 9.8 27 12.1 SSE 11 15 6 8 1013.3 1011.8 0.0
22/05:30pm 31.3 28.5 10.1 27 12.2 SE 15 19 8 10 1013.3 - 0.0
22/05:00pm 31.5 29.1 10.2 27 12.3 SE 13 20 7 11 1013.1 - 0.0
22/04:30pm 31.8 29.9 10.5 27 12.4 ESE 11 19 6 10 1013.0 - 0.0
22/04:00pm 32.1 30.9 10.2 26 12.7 WSW 7 15 4 8 1012.8 - 0.0
22/03:30pm 32.6 31.5 10.0 25 13.1 NNW 6 13 3 7 1012.8 - 0.0
22/03:00pm 33.1 32.1 10.4 25 13.2 NE 6 13 3 7 1013.0 1011.5 0.0
22/02:30pm 31.5 30.5 10.2 27 12.3 N 6 11 3 6 1013.5 - 0.0
22/02:00pm 31.3 30.2 10.6 28 12.0 NW 7 15 4 8 1013.9 - 0.0
22/01:30pm 32.4 30.6 11.0 27 12.6 SE 11 17 6 9 1014.3 - 0.0
22/01:00pm 31.4 29.9 10.7 28 12.0 SE 9 15 5 8 1014.9 - 0.0
22/12:30pm 31.4 29.2 10.7 28 12.0 ENE 13 24 7 13 1015.4 - 0.0
22/12:00pm 31.1 30.2 12.5 32 11.1 N 9 17 5 9 1015.9 1014.5 0.0
22/11:30am 31.1 28.8 12.9 32 10.9 NNE 17 26 9 14 1016.6 - 0.0
22/11:00am 29.6 27.1 13.4 37 9.8 NE 19 26 10 14 1017.0 - 0.0
22/10:30am 29.2 27.1 14.6 41 8.9 NE 19 24 10 13 1017.3 - 0.0
22/10:00am 29.1 26.2 14.1 40 9.1 NE 22 30 12 16 1017.5 - 0.0
22/09:30am 27.9 23.7 13.4 40 8.7 NNE 28 35 15 19 1017.3 - 0.0
22/09:00am 26.7 23.0 9.5 34 9.6 NE 19 22 10 12 1017.2 1015.8 0.0
22/08:30am 25.3 21.7 8.3 34 9.2 NE 17 22 9 12 1017.0 - 0.0
22/08:00am 23.6 19.4 7.3 35 8.6 NE 19 26 10 14 1016.8 - 0.0
22/07:30am 21.8 18.1 6.1 36 8.0 NE 15 19 8 10 1016.5 - 0.0
22/07:00am 20.7 16.4 5.1 36 7.8 NNE 17 20 9 11 1016.0 - 0.0
22/06:30am 20.8 16.4 4.8 35 7.9 NNE 17 20 9 11 1015.7 - 0.0
22/06:00am 20.4 16.0 4.8 36 7.7 NE 17 19 9 10 1015.4 1014.0 0.0
22/05:30am 20.1 16.4 4.6 36 7.6 NE 13 17 7 9 1015.4 - 0.0
22/05:00am 20.0 16.4 4.9 37 7.5 NNE 13 17 7 9 1015.3 - 0.0
22/04:30am 20.0 17.0 4.1 35 7.7 NE 9 13 5 7 1015.3 - 0.0
22/04:00am 20.3 17.3 3.9 34 8.0 NE 9 11 5 6 1015.3 - 0.0
22/03:30am 20.8 19.2 4.4 34 8.1 ENE 2 6 1 3 1015.2 - 0.0
22/03:00am 20.8 17.7 3.5 32 8.3 ENE 9 11 5 6 1015.3 1013.9 0.0
22/02:30am 20.6 18.2 4.2 34 8.0 ENE 6 7 3 4 1015.6 - 0.0
22/02:00am 19.8 17.6 3.5 34 7.8 NNE 4 11 2 6 1015.9 - 0.0
22/01:30am 21.2 19.9 3.9 32 8.4 CALM 0 0 0 0 1015.7 - 0.0
22/01:00am 22.0 19.6 4.1 31 8.8 NNE 6 7 3 4 1015.9 - 0.0
22/12:30am 22.7 20.4 4.7 31 9.0 ENE 6 7 3 4 1015.9 - 0.0
22/12:00am 22.4 19.9 4.5 31 8.9 E 7 9 4 5 1016.0 1014.6 0.0
 
Date/Time
EST
Temp
°C
App
Temp
°C
Dew
Point
Rel
Hum
%
Delta-T
°C
Wind Press
QNH
hPa
Press
MSL
hPa
Rain
since 9 am
mm
Dir
 
Spd
km/h
Gust
km/h
Spd
kts
Gust
kts
21/11:30pm 22.9 19.9 3.9 29 9.4 ESE 9 13 5 7 1015.9 - 0.0
21/11:00pm 23.3 20.8 4.8 30 9.3 ESE 7 9 4 5 1015.9 - 0.0
21/10:30pm 23.3 20.9 4.3 29 9.5 ESE 6 9 3 5 1016.0 - 0.0
21/10:00pm 23.4 20.4 3.9 28 9.7 E 9 11 5 6 1016.0 - 0.0
21/09:30pm 24.9 21.9 4.1 26 10.4 E 9 13 5 7 1016.0 - 0.0
21/09:00pm 26.0 22.7 4.5 25 10.9 ESE 11 13 6 7 1015.9 1014.5 0.0
21/08:30pm 26.3 23.0 4.7 25 11.1 E 11 13 6 7 1015.7 - 0.0
21/08:00pm 26.6 23.7 4.4 24 11.3 E 9 11 5 6 1015.3 - 0.0
21/07:30pm 27.6 24.0 5.2 24 11.7 E 13 15 7 8 1014.9 - 0.0
21/07:00pm 28.6 25.0 4.8 22 12.4 E 13 15 7 8 1014.8 - 0.0
21/06:30pm 30.2 26.3 5.5 21 13.1 ENE 15 20 8 11 1014.6 - 0.0
21/06:00pm 31.1 27.4 6.2 21 13.5 E 15 19 8 10 1014.2 1012.8 0.0
21/05:30pm 31.8 28.6 6.8 21 13.7 E 13 20 7 11 1014.0 - 0.0
21/05:00pm 32.2 27.6 6.4 20 14.1 ESE 20 35 11 19 1013.7 - 0.0
21/04:30pm 32.4 28.0 6.6 20 14.1 ENE 19 26 10 14 1013.6 - 0.0
21/04:00pm 32.5 27.9 6.7 20 14.2 ESE 20 30 11 16 1013.7 - 0.0

Other Formats:

Comma delimited format used in spreadsheet applications
http://www.bom.gov.au/fwo/IDQ60801/IDQ60801.94338.axf

JavaScript Object Notation format (JSON) in row-major order
http://www.bom.gov.au/fwo/IDQ60801/IDQ60801.94338.json